Time;durP1;ratioP1;P1;durP2;ratioP2;P2;SDS_P1;SDS_P2;PMS_P1;PMS_P2;Temp;Humidity;BMP_temperature;BMP_pressure;BME280_temperature;BME280_humidity;BME280_pressure;Samples;Min_cycle;Max_cycle;Signal;HPM_P1;HPM_P2
2023/06/15 00:00:19;;;;;;;3.75;2.40;;;18.40;72.90;;;;;;5034582;28;20120;-74
2023/06/15 00:02:45;;;;;;;5.43;2.50;;;18.40;73.10;;;;;;5017804;28;20545;-74
2023/06/15 00:05:11;;;;;;;6.57;2.30;;;18.40;73.30;;;;;;5034175;28;20072;-74
2023/06/15 00:07:36;;;;;;;5.25;2.50;;;18.30;73.40;;;;;;5034208;28;20065;-74
2023/06/15 00:10:02;;;;;;;6.13;2.60;;;18.30;73.40;;;;;;5034298;28;20033;-74
2023/06/15 00:12:28;;;;;;;8.27;2.65;;;18.20;73.60;;;;;;5034104;28;20410;-74
2023/06/15 00:14:54;;;;;;;5.07;2.33;;;18.20;73.70;;;;;;5017767;28;20038;-74
2023/06/15 00:17:21;;;;;;;6.65;2.80;;;18.20;73.90;;;;;;5034022;28;20041;-74
2023/06/15 00:19:47;;;;;;;7.57;2.72;;;18.10;73.90;;;;;;5034229;28;20045;-74
2023/06/15 00:22:15;;;;;;;6.28;2.30;;;18.10;74.00;;;;;;5034163;28;20528;-74
2023/06/15 00:24:44;;;;;;;12.15;3.05;;;18.10;74.10;;;;;;5033793;28;20128;-74
2023/06/15 00:27:10;;;;;;;5.40;2.20;;;18.10;74.10;;;;;;5034061;28;20042;-74
2023/06/15 00:29:37;;;;;;;4.68;2.58;;;18.00;74.30;;;;;;5033807;28;20049;-74
2023/06/15 00:32:06;;;;;;;9.75;2.58;;;18.00;74.30;;;;;;5033732;28;20482;-74
2023/06/15 00:34:32;;;;;;;7.07;2.60;;;18.00;74.50;;;;;;5033582;28;20034;-74
2023/06/15 00:36:57;;;;;;;7.22;2.60;;;18.00;74.70;;;;;;5033900;28;20040;-74
2023/06/15 00:39:23;;;;;;;6.05;2.55;;;17.90;74.60;;;;;;5033578;28;20445;-74
2023/06/15 00:41:49;;;;;;;5.28;2.63;;;17.90;74.80;;;;;;5033596;28;20132;-74
2023/06/15 00:44:15;;;;;;;6.50;2.60;;;17.80;74.80;;;;;;5033466;28;20075;-74
2023/06/15 00:46:41;;;;;;;7.95;2.60;;;17.80;74.80;;;;;;5033515;28;20561;-74
2023/06/15 00:49:07;;;;;;;5.53;2.58;;;17.80;75.10;;;;;;5033303;28;20047;-74
2023/06/15 00:51:35;;;;;;;6.57;2.67;;;17.80;75.10;;;;;;5033265;28;20124;-74
2023/06/15 00:54:02;;;;;;;10.48;2.63;;;17.70;75.20;;;;;;5033315;28;20210;-74
2023/06/15 00:56:29;;;;;;;3.97;2.30;;;17.70;75.40;;;;;;5033353;28;20041;-74
2023/06/15 00:58:58;;;;;;;7.28;2.50;;;17.70;75.50;;;;;;5033465;28;20555;-74
2023/06/15 01:01:25;;;;;;;6.82;2.97;;;17.70;75.50;;;;;;5033406;28;20042;-74
2023/06/15 01:03:51;;;;;;;5.28;2.13;;;17.70;75.60;;;;;;5033127;28;20072;-74
2023/06/15 01:06:19;;;;;;;4.57;2.40;;;17.60;75.80;;;;;;5033020;28;20044;-74
2023/06/15 01:08:47;;;;;;;4.38;2.40;;;17.60;75.90;;;;;;5033006;28;20076;-74
2023/06/15 01:11:14;;;;;;;7.28;2.55;;;17.50;76.00;;;;;;5032922;28;20041;-74
2023/06/15 01:13:42;;;;;;;9.00;2.95;;;17.50;76.30;;;;;;5032967;28;20041;-74
2023/06/15 01:16:24;;;;;;;7.00;2.70;;;17.50;76.30;;;;;;5032768;28;20568;-74
2023/06/15 01:18:56;;;;;;;5.40;2.42;;;17.40;76.50;;;;;;5033102;28;20569;-74
2023/06/15 01:21:26;;;;;;;6.63;2.63;;;17.40;76.60;;;;;;5016459;28;20045;-74
2023/06/15 01:23:59;;;;;;;6.93;2.47;;;17.40;76.70;;;;;;5016317;28;20490;-74
2023/06/15 01:26:28;;;;;;;5.30;2.70;;;17.40;77.00;;;;;;5032654;28;20041;-74
2023/06/15 01:28:55;;;;;;;3.50;2.05;;;17.30;77.00;;;;;;5032653;28;20124;-74
2023/06/15 01:31:22;;;;;;;6.80;2.53;;;17.20;77.20;;;;;;5032523;28;20052;-74
2023/06/15 01:33:49;;;;;;;9.07;3.03;;;17.20;77.30;;;;;;5032594;28;20073;-74
2023/06/15 01:36:15;;;;;;;7.38;2.70;;;17.20;77.50;;;;;;5033560;28;20116;-74
2023/06/15 01:38:42;;;;;;;6.28;2.58;;;17.20;77.70;;;;;;5032507;28;20096;-74
2023/06/15 01:41:10;;;;;;;6.45;2.80;;;17.20;77.80;;;;;;5016244;28;20404;-74
2023/06/15 01:43:37;;;;;;;4.85;3.03;;;17.10;77.90;;;;;;5032439;28;20053;-74
2023/06/15 01:46:05;;;;;;;6.07;2.83;;;17.10;78.10;;;;;;5032297;28;20042;-74
2023/06/15 01:48:30;;;;;;;4.70;2.70;;;17.10;78.20;;;;;;5032593;28;20485;-74
2023/06/15 01:50:57;;;;;;;8.73;3.28;;;17.00;78.30;;;;;;5032180;28;20044;-74
2023/06/15 01:53:23;;;;;;;7.63;3.08;;;17.00;78.50;;;;;;5032260;28;20045;-74
2023/06/15 01:55:49;;;;;;;6.82;3.22;;;17.00;78.60;;;;;;5032346;28;20371;-74
2023/06/15 01:58:15;;;;;;;11.13;3.40;;;17.00;78.70;;;;;;5032060;28;20520;-74
2023/06/15 02:00:42;;;;;;;7.85;3.17;;;17.00;79.00;;;;;;5031887;28;20045;-74
2023/06/15 02:03:07;;;;;;;8.23;3.22;;;17.00;79.00;;;;;;5015668;28;20053;-74
2023/06/15 02:05:39;;;;;;;7.45;3.63;;;16.90;79.20;;;;;;5031995;28;20068;-74
2023/06/15 02:08:08;;;;;;;7.80;3.28;;;16.90;79.40;;;;;;5032046;28;20048;-74
2023/06/15 02:10:34;;;;;;;9.85;3.63;;;16.90;79.50;;;;;;5031939;28;20045;-74
2023/06/15 02:13:00;;;;;;;8.48;3.58;;;16.80;79.60;;;;;;5031991;28;20037;-74
2023/06/15 02:15:26;;;;;;;5.72;3.45;;;16.80;79.80;;;;;;5032168;28;20123;-74
2023/06/15 02:17:58;;;;;;;6.35;3.20;;;16.80;79.90;;;;;;5031910;28;20517;-74
2023/06/15 02:20:23;;;;;;;7.53;3.30;;;16.80;80.00;;;;;;5031953;28;20517;-74
2023/06/15 02:22:52;;;;;;;6.22;3.38;;;16.70;80.20;;;;;;5015419;28;20037;-74
2023/06/15 02:25:18;;;;;;;4.47;3.33;;;16.70;80.50;;;;;;5015378;28;20033;-74
2023/06/15 02:27:44;;;;;;;7.03;3.20;;;16.70;80.60;;;;;;5031824;28;20091;-74
2023/06/15 02:30:11;;;;;;;8.05;3.20;;;16.60;80.80;;;;;;5031723;28;20041;-74
2023/06/15 02:32:39;;;;;;;8.63;3.67;;;16.60;80.90;;;;;;5031745;28;20437;-74
2023/06/15 02:35:08;;;;;;;7.57;3.35;;;16.60;81.10;;;;;;5015301;28;20038;-74
2023/06/15 02:37:34;;;;;;;5.82;3.28;;;16.60;81.30;;;;;;5015293;28;20086;-74
2023/06/15 02:40:00;;;;;;;7.35;3.58;;;16.50;81.50;;;;;;5015303;28;20120;-74
2023/06/15 02:42:26;;;;;;;7.03;3.40;;;16.50;81.80;;;;;;5031757;28;20056;-74
2023/06/15 02:44:52;;;;;;;6.75;3.20;;;16.50;82.00;;;;;;5015154;28;20041;-74
2023/06/15 02:47:17;;;;;;;8.45;3.33;;;16.40;82.20;;;;;;5031918;28;20072;-74
2023/06/15 02:49:43;;;;;;;7.85;3.20;;;16.40;82.50;;;;;;5031674;28;20528;-74
2023/06/15 02:52:09;;;;;;;10.35;4.05;;;16.40;82.60;;;;;;5031516;28;20049;-74
2023/06/15 02:54:36;;;;;;;8.75;3.40;;;16.40;82.70;;;;;;5031612;28;20095;-74
2023/06/15 02:57:06;;;;;;;7.18;3.40;;;16.40;82.90;;;;;;5031607;28;20037;-74
2023/06/15 02:59:35;;;;;;;8.68;3.50;;;16.40;83.10;;;;;;5031533;28;20045;-74
2023/06/15 03:02:04;;;;;;;9.75;3.30;;;16.30;83.40;;;;;;5031535;28;20041;-74
2023/06/15 03:04:30;;;;;;;8.80;3.70;;;16.30;83.70;;;;;;5031421;28;20394;-74
2023/06/15 03:06:57;;;;;;;12.80;4.18;;;16.30;83.90;;;;;;5031478;28;20045;-74
2023/06/15 03:09:23;;;;;;;8.80;4.00;;;16.30;84.30;;;;;;5031689;28;20120;-74
2023/06/15 03:11:50;;;;;;;7.78;3.67;;;16.30;84.60;;;;;;5034586;28;20091;-74
2023/06/15 03:14:20;;;;;;;10.93;4.40;;;16.30;84.80;;;;;;5035404;28;20042;-74
2023/06/15 03:16:47;;;;;;;7.22;3.72;;;16.30;85.10;;;;;;5018887;28;20091;-74
2023/06/15 03:19:17;;;;;;;6.60;3.70;;;16.20;85.50;;;;;;5018668;28;20045;-74
2023/06/15 03:21:47;;;;;;;9.82;4.43;;;16.20;85.90;;;;;;5035022;28;20405;-74
2023/06/15 03:24:13;;;;;;;11.27;3.92;;;16.20;86.30;;;;;;5034981;28;20056;-74
2023/06/15 03:26:41;;;;;;;7.72;4.43;;;16.20;86.70;;;;;;5035025;28;20088;-74
2023/06/15 03:29:07;;;;;;;6.07;3.85;;;16.20;87.10;;;;;;5035220;28;20510;-74
2023/06/15 03:31:40;;;;;;;12.43;4.55;;;16.20;87.60;;;;;;5018314;28;20040;-74
2023/06/15 03:34:07;;;;;;;8.02;4.15;;;16.20;87.90;;;;;;5034866;28;20037;-74
2023/06/15 03:36:33;;;;;;;8.98;4.28;;;16.20;87.90;;;;;;5018210;28;20037;-74
2023/06/15 03:38:58;;;;;;;10.48;4.32;;;16.20;88.50;;;;;;5035012;28;20037;-74
2023/06/15 03:41:27;;;;;;;9.32;4.63;;;16.20;88.80;;;;;;5035002;28;20409;-74
2023/06/15 03:43:52;;;;;;;7.05;4.60;;;16.10;89.20;;;;;;5018223;28;20551;-74
2023/06/15 03:46:18;;;;;;;9.98;5.07;;;16.20;89.70;;;;;;5034610;28;20121;-74
2023/06/15 03:48:45;;;;;;;8.88;5.05;;;16.10;89.70;;;;;;5034899;28;20068;-74
2023/06/15 03:51:11;;;;;;;10.32;5.03;;;16.10;90.10;;;;;;5034474;28;20041;-74
2023/06/15 03:53:37;;;;;;;9.88;5.07;;;16.10;90.30;;;;;;5035037;28;20120;-74
2023/06/15 03:56:03;;;;;;;7.95;4.57;;;16.10;90.40;;;;;;5034276;28;20449;-74
2023/06/15 03:58:28;;;;;;;9.77;4.95;;;16.10;90.60;;;;;;5017920;28;20064;-74
2023/06/15 04:00:56;;;;;;;6.75;4.43;;;16.10;90.70;;;;;;5034578;28;20124;-74
2023/06/15 04:03:21;;;;;;;8.25;4.70;;;16.10;91.00;;;;;;5034594;28;20049;-74
2023/06/15 04:05:48;;;;;;;7.35;4.53;;;16.10;91.10;;;;;;5034190;28;20048;-74
2023/06/15 04:08:14;;;;;;;8.48;5.40;;;16.10;91.30;;;;;;5034165;28;20413;-74
2023/06/15 04:10:40;;;;;;;12.52;5.15;;;16.10;91.40;;;;;;5034153;28;20113;-74
2023/06/15 04:13:05;;;;;;;8.55;5.22;;;16.10;91.60;;;;;;5034128;28;20033;-74
2023/06/15 04:15:31;;;;;;;11.85;5.30;;;16.10;91.70;;;;;;5017516;28;20099;-74
2023/06/15 04:18:00;;;;;;;6.80;4.80;;;16.10;91.70;;;;;;5034361;28;20034;-74
2023/06/15 04:20:28;;;;;;;16.60;5.60;;;16.20;91.80;;;;;;5033926;28;20473;-74
2023/06/15 04:22:55;;;;;;;9.05;5.05;;;16.20;92.00;;;;;;5033533;28;20063;-74
2023/06/15 04:25:21;;;;;;;15.20;5.93;;;16.20;92.10;;;;;;5017343;28;20034;-74
2023/06/15 04:27:47;;;;;;;12.50;5.18;;;16.20;92.20;;;;;;5034138;28;20048;-74
2023/06/15 04:30:16;;;;;;;9.70;5.38;;;16.20;92.20;;;;;;5033999;28;20033;-74
2023/06/15 04:32:43;;;;;;;8.88;5.00;;;16.30;92.30;;;;;;5033763;28;20391;-74
2023/06/15 04:35:08;;;;;;;9.60;5.35;;;16.30;92.30;;;;;;5034215;28;20120;-74
2023/06/15 04:37:39;;;;;;;12.23;5.05;;;16.40;92.20;;;;;;5033631;28;20072;-74
2023/06/15 04:40:07;;;;;;;10.75;5.90;;;16.40;92.20;;;;;;5033645;28;20037;-74
2023/06/15 04:42:33;;;;;;;12.48;6.18;;;16.40;92.20;;;;;;5033833;28;20559;-74
2023/06/15 04:44:59;;;;;;;10.52;6.10;;;16.40;92.20;;;;;;5033419;28;20077;-74
2023/06/15 04:47:25;;;;;;;10.30;5.32;;;16.50;92.30;;;;;;5033409;28;20045;-74
2023/06/15 04:49:51;;;;;;;7.43;5.05;;;16.50;92.20;;;;;;5033448;28;20045;-74
2023/06/15 04:52:17;;;;;;;9.57;5.22;;;16.60;91.80;;;;;;5033363;28;20048;-74
2023/06/15 04:54:42;;;;;;;8.95;5.75;;;16.60;92.10;;;;;;5033159;28;20037;-74
2023/06/15 04:57:08;;;;;;;8.70;5.45;;;16.60;91.80;;;;;;5033623;28;20041;-74
2023/06/15 04:59:34;;;;;;;9.30;4.80;;;16.60;91.60;;;;;;5033513;28;20509;-74
2023/06/15 05:02:00;;;;;;;11.52;4.70;;;16.70;91.50;;;;;;5033436;28;20060;-74
2023/06/15 05:04:26;;;;;;;10.00;4.80;;;16.70;91.80;;;;;;5033072;28;20494;-74
2023/06/15 05:06:51;;;;;;;9.13;4.20;;;16.80;91.30;;;;;;5033329;28;20060;-74
2023/06/15 05:09:18;;;;;;;7.97;4.47;;;16.90;90.90;;;;;;5033035;28;20492;-74
2023/06/15 05:11:43;;;;;;;6.63;3.58;;;17.00;90.70;;;;;;5032976;28;20148;-74
2023/06/15 05:14:09;;;;;;;7.63;3.95;;;17.00;90.60;;;;;;5033829;28;20128;-74
2023/06/15 05:16:34;;;;;;;7.70;3.58;;;17.10;90.20;;;;;;5032870;28;20497;-74
2023/06/15 05:19:00;;;;;;;9.65;3.17;;;17.10;89.40;;;;;;5032906;28;20037;-74
2023/06/15 05:21:26;;;;;;;7.53;3.40;;;17.20;88.70;;;;;;5032755;28;20073;-74
2023/06/15 05:23:51;;;;;;;8.63;2.85;;;17.30;87.50;;;;;;5033034;28;20045;-74
2023/06/15 05:26:17;;;;;;;12.70;5.88;;;17.30;86.60;;;;;;5032652;28;20436;-74
2023/06/15 05:28:43;;;;;;;25.02;9.18;;;17.40;85.70;;;;;;5032742;28;20041;-74
2023/06/15 05:31:09;;;;;;;23.70;8.35;;;17.50;84.90;;;;;;5033101;28;20076;-74
2023/06/15 05:33:36;;;;;;;12.52;5.75;;;17.60;84.20;;;;;;5031907;28;20052;-74
2023/06/15 05:36:01;;;;;;;10.20;4.60;;;17.60;83.50;;;;;;5032598;28;20083;-74
2023/06/15 05:38:27;;;;;;;6.60;3.00;;;17.70;83.50;;;;;;5032560;28;20033;-74
2023/06/15 05:40:52;;;;;;;5.82;2.90;;;17.80;83.00;;;;;;5032485;28;20049;-74
2023/06/15 05:43:19;;;;;;;5.32;2.80;;;17.90;82.60;;;;;;5016320;28;20037;-74
2023/06/15 05:45:47;;;;;;;6.30;2.88;;;17.90;82.00;;;;;;5032608;28;20076;-74
2023/06/15 05:48:14;;;;;;;5.47;2.70;;;18.00;81.50;;;;;;5032391;28;20048;-74
2023/06/15 05:50:39;;;;;;;4.35;2.40;;;18.00;80.20;;;;;;5032274;28;20038;-74
2023/06/15 05:53:05;;;;;;;7.80;2.55;;;18.20;79.90;;;;;;5032330;28;20115;-74
2023/06/15 05:55:31;;;;;;;4.45;2.20;;;18.20;79.80;;;;;;5032040;28;20116;-74
2023/06/15 05:57:56;;;;;;;7.82;2.50;;;18.30;79.20;;;;;;5032141;28;20036;-74
2023/06/15 06:00:25;;;;;;;5.30;2.45;;;18.30;78.50;;;;;;5032534;28;20037;-74
2023/06/15 06:02:52;;;;;;;6.50;2.17;;;18.40;78.10;;;;;;5032419;28;20041;-74
2023/06/15 06:05:18;;;;;;;8.88;2.58;;;18.50;77.90;;;;;;5032059;28;20033;-74
2023/06/15 06:07:45;;;;;;;4.72;2.17;;;18.60;77.60;;;;;;5032358;28;20033;-74
2023/06/15 06:10:11;;;;;;;5.65;2.53;;;18.70;77.20;;;;;;5031994;28;20429;-74
2023/06/15 06:12:36;;;;;;;6.97;2.40;;;18.70;76.80;;;;;;5031948;28;20045;-74
2023/06/15 06:15:02;;;;;;;6.32;2.42;;;18.80;75.70;;;;;;5031890;28;20506;-74
2023/06/15 06:17:28;;;;;;;4.55;2.20;;;18.80;75.10;;;;;;5031940;28;20059;-74
2023/06/15 06:19:54;;;;;;;4.47;2.22;;;19.00;75.10;;;;;;5031949;28;20038;-74
2023/06/15 06:22:20;;;;;;;13.85;2.83;;;19.00;74.50;;;;;;5032132;28;20048;-74
2023/06/15 06:24:45;;;;;;;6.40;2.25;;;19.10;73.90;;;;;;5031827;28;20041;-74
2023/06/15 06:27:11;;;;;;;4.63;2.50;;;19.20;73.90;;;;;;5015675;28;20041;-74
2023/06/15 06:29:37;;;;;;;5.25;1.98;;;19.30;73.20;;;;;;5031871;28;20041;-74
2023/06/15 06:32:02;;;;;;;8.23;2.38;;;19.40;72.30;;;;;;5031742;28;20045;-74
2023/06/15 06:34:28;;;;;;;3.90;2.35;;;19.50;71.20;;;;;;5015305;28;20077;-74
2023/06/15 06:36:54;;;;;;;4.03;2.13;;;19.50;70.80;;;;;;5031718;28;20056;-74
2023/06/15 06:39:19;;;;;;;4.53;2.10;;;19.60;70.30;;;;;;5032015;28;20038;-74
2023/06/15 06:41:45;;;;;;;6.10;2.70;;;19.80;70.00;;;;;;5031718;28;20505;-74
2023/06/15 06:44:11;;;;;;;7.07;2.15;;;19.90;69.50;;;;;;5031597;28;20093;-74
2023/06/15 06:46:36;;;;;;;8.43;2.25;;;20.00;69.40;;;;;;5034690;28;20041;-74
2023/06/15 06:49:02;;;;;;;5.95;2.00;;;20.10;68.50;;;;;;5035692;28;20045;-74
2023/06/15 06:51:27;;;;;;;2.53;1.95;;;20.20;67.30;;;;;;5035550;28;20046;-74
2023/06/15 06:53:53;;;;;;;5.63;2.30;;;20.30;66.90;;;;;;5035853;28;20041;-74
2023/06/15 06:56:18;;;;;;;8.88;1.98;;;20.40;67.10;;;;;;5035403;28;20041;-74
2023/06/15 06:58:44;;;;;;;3.72;1.95;;;20.40;66.30;;;;;;5019073;28;20044;-74
2023/06/15 07:01:10;;;;;;;9.38;2.35;;;20.50;65.80;;;;;;5035474;28;20076;-74
2023/06/15 07:03:38;;;;;;;3.67;1.80;;;20.60;66.50;;;;;;5035419;28;20041;-74
2023/06/15 07:06:03;;;;;;;6.70;2.20;;;20.70;66.30;;;;;;5035529;28;20048;-74
2023/06/15 07:08:29;;;;;;;6.00;2.20;;;20.80;65.60;;;;;;5035366;28;20041;-74
2023/06/15 07:10:55;;;;;;;5.80;2.30;;;20.90;65.40;;;;;;5035246;28;20060;-74
2023/06/15 07:13:20;;;;;;;6.47;2.60;;;21.00;65.90;;;;;;5035560;28;20040;-74
2023/06/15 07:15:46;;;;;;;4.70;1.80;;;21.00;65.60;;;;;;5035275;28;20080;-74
2023/06/15 07:18:14;;;;;;;6.13;2.20;;;21.10;64.80;;;;;;5035268;28;20041;-74
2023/06/15 07:20:40;;;;;;;7.15;2.38;;;21.20;64.50;;;;;;5035145;28;20056;-74
2023/06/15 07:23:05;;;;;;;4.88;1.80;;;21.30;64.10;;;;;;5035062;28;20405;-74
2023/06/15 07:25:31;;;;;;;8.07;2.00;;;21.40;63.80;;;;;;5035003;28;20045;-74
2023/06/15 07:27:57;;;;;;;6.10;2.30;;;21.50;63.70;;;;;;5035103;28;20067;-74
2023/06/15 07:30:22;;;;;;;5.18;2.10;;;21.60;63.10;;;;;;5034863;28;20047;-74
2023/06/15 07:32:48;;;;;;;5.88;2.00;;;21.80;62.50;;;;;;5034908;28;20037;-74
2023/06/15 07:35:15;;;;;;;7.93;2.75;;;21.90;63.10;;;;;;5034824;28;20033;-74
2023/06/15 07:37:41;;;;;;;7.55;2.63;;;21.90;63.30;;;;;;5034785;28;20045;-74
2023/06/15 07:40:07;;;;;;;5.30;1.98;;;22.00;62.70;;;;;;5018124;28;20052;-74
2023/06/15 07:42:32;;;;;;;4.57;2.10;;;22.10;62.60;;;;;;5034723;28;20048;-74
2023/06/15 07:44:58;;;;;;;4.57;1.90;;;22.20;61.10;;;;;;5034610;28;20053;-74
2023/06/15 07:47:23;;;;;;;4.88;2.22;;;22.30;60.90;;;;;;5034627;28;20056;-74
2023/06/15 07:49:49;;;;;;;4.63;2.03;;;22.40;60.90;;;;;;5034584;28;20406;-74
2023/06/15 07:52:15;;;;;;;6.32;1.95;;;22.50;60.60;;;;;;5034465;28;20128;-74
2023/06/15 07:54:41;;;;;;;8.63;2.75;;;22.70;59.40;;;;;;5034541;28;20045;-74
2023/06/15 07:57:07;;;;;;;4.80;1.92;;;22.80;58.80;;;;;;5033680;28;20073;-74
2023/06/15 07:59:32;;;;;;;4.43;2.00;;;22.90;58.90;;;;;;5017948;28;20552;-74
2023/06/15 08:01:58;;;;;;;4.95;1.90;;;23.00;58.40;;;;;;5034273;28;20083;-74
2023/06/15 08:04:24;;;;;;;7.20;1.92;;;23.20;58.00;;;;;;5034585;28;20103;-74
2023/06/15 08:06:49;;;;;;;4.97;1.90;;;23.20;56.60;;;;;;5034289;28;20460;-74
2023/06/15 08:09:15;;;;;;;4.07;1.80;;;23.30;56.80;;;;;;5034501;28;20076;-74
2023/06/15 08:11:40;;;;;;;5.38;2.10;;;23.40;56.80;;;;;;5034070;28;20128;-74
2023/06/15 08:14:06;;;;;;;3.30;1.60;;;23.60;55.90;;;;;;5034097;28;20041;-74
2023/06/15 08:16:32;;;;;;;6.93;1.80;;;23.70;55.30;;;;;;5017795;28;20038;-74
2023/06/15 08:18:57;;;;;;;4.05;1.90;;;23.80;55.40;;;;;;5017587;28;20049;-74
2023/06/15 08:21:23;;;;;;;6.13;2.35;;;23.90;55.80;;;;;;5034017;28;20041;-74
2023/06/15 08:23:49;;;;;;;7.43;2.25;;;24.00;55.30;;;;;;5033962;28;20195;-74
2023/06/15 08:26:14;;;;;;;4.43;1.92;;;24.10;54.30;;;;;;5034080;28;20041;-74
2023/06/15 08:28:40;;;;;;;10.63;2.13;;;24.20;54.00;;;;;;5033903;28;20102;-74
2023/06/15 08:31:05;;;;;;;7.97;2.10;;;24.30;54.00;;;;;;5033693;28;20038;-74
2023/06/15 08:33:31;;;;;;;4.50;1.90;;;24.40;53.80;;;;;;5033771;28;20052;-74
2023/06/15 08:35:57;;;;;;;7.82;2.03;;;24.50;52.80;;;;;;5033686;28;20041;-74
2023/06/15 08:38:23;;;;;;;4.60;1.60;;;24.60;52.60;;;;;;5017124;28;20087;-74
2023/06/15 08:40:48;;;;;;;4.38;2.25;;;24.70;52.60;;;;;;5033876;28;20051;-74
2023/06/15 08:43:18;;;;;;;5.43;1.80;;;24.90;52.40;;;;;;5033528;28;20452;-74
2023/06/15 08:45:48;;;;;;;4.22;1.88;;;24.90;51.60;;;;;;5033476;28;20049;-74
2023/06/15 08:48:16;;;;;;;5.50;2.03;;;25.10;51.40;;;;;;5033480;28;20053;-74
2023/06/15 08:50:44;;;;;;;7.10;2.53;;;25.20;50.50;;;;;;5033338;28;20037;-74
2023/06/15 08:53:12;;;;;;;11.38;2.25;;;25.40;49.90;;;;;;5033439;28;20164;-74
2023/06/15 08:55:38;;;;;;;6.35;2.10;;;25.40;49.00;;;;;;5033164;28;20490;-74
2023/06/15 08:58:05;;;;;;;5.32;2.00;;;25.50;48.70;;;;;;5033329;28;20045;-74
2023/06/15 09:00:31;;;;;;;4.10;1.80;;;25.60;47.90;;;;;;5033262;28;20044;-74
2023/06/15 09:03:00;;;;;;;4.95;1.98;;;25.70;48.60;;;;;;5033236;28;20046;-74
2023/06/15 09:05:26;;;;;;;4.05;1.90;;;25.70;45.90;;;;;;5033098;28;20403;-74
2023/06/15 09:07:52;;;;;;;4.70;1.98;;;25.80;45.50;;;;;;5033162;28;20041;-74
2023/06/15 09:10:20;;;;;;;6.25;2.13;;;25.90;46.50;;;;;;5016846;28;20389;-74
2023/06/15 09:12:51;;;;;;;4.65;2.08;;;26.00;45.70;;;;;;5032964;28;20120;-74
2023/06/15 09:15:22;;;;;;;6.55;2.08;;;26.20;46.90;;;;;;5032982;28;20582;-74
2023/06/15 09:17:55;;;;;;;5.32;2.08;;;26.30;47.30;;;;;;5032918;28;20052;-74
2023/06/15 09:20:24;;;;;;;6.13;2.40;;;26.30;47.70;;;;;;5032949;28;20523;-74
2023/06/15 09:22:51;;;;;;;7.40;2.40;;;26.40;47.50;;;;;;5032829;28;20038;-74
2023/06/15 09:25:21;;;;;;;4.18;2.22;;;26.60;47.90;;;;;;5032742;28;20091;-74
2023/06/15 09:27:54;;;;;;;3.38;1.92;;;26.60;47.10;;;;;;5033334;28;20040;-74
2023/06/15 09:30:20;;;;;;;5.72;2.00;;;26.70;45.70;;;;;;5033006;28;20111;-74
2023/06/15 09:32:46;;;;;;;4.60;1.92;;;26.70;45.20;;;;;;5032592;28;20064;-74
2023/06/15 09:35:11;;;;;;;6.70;2.00;;;26.80;46.70;;;;;;5032800;28;20034;-74
2023/06/15 09:37:37;;;;;;;5.95;2.35;;;26.90;47.40;;;;;;5032832;28;20402;-74
2023/06/15 09:40:05;;;;;;;4.30;2.08;;;27.00;46.60;;;;;;5032788;28;20529;-74
2023/06/15 09:42:30;;;;;;;7.90;2.00;;;27.10;45.70;;;;;;5032434;28;20506;-74
2023/06/15 09:45:03;;;;;;;8.45;2.00;;;27.20;45.20;;;;;;5032372;28;20049;-74
2023/06/15 09:47:30;;;;;;;11.48;2.22;;;27.20;45.10;;;;;;5032363;28;20045;-74
2023/06/15 09:49:56;;;;;;;11.82;2.92;;;27.30;45.10;;;;;;5032372;28;20045;-75
2023/06/15 09:52:22;;;;;;;7.63;2.65;;;27.40;44.00;;;;;;5032281;28;20103;-75
2023/06/15 09:54:48;;;;;;;7.32;2.30;;;27.50;44.20;;;;;;5032056;28;20505;-75
2023/06/15 09:57:18;;;;;;;5.68;2.17;;;27.60;44.70;;;;;;5032264;28;20052;-74
2023/06/15 09:59:45;;;;;;;4.82;1.92;;;27.60;43.10;;;;;;5032493;28;20041;-74
2023/06/15 10:02:12;;;;;;;6.18;2.03;;;27.70;42.80;;;;;;5032437;28;20099;-74
2023/06/15 10:04:40;;;;;;;6.05;2.13;;;27.70;42.80;;;;;;5032398;28;20068;-74
2023/06/15 10:07:10;;;;;;;5.80;1.98;;;27.80;42.60;;;;;;5032331;28;20041;-74
2023/06/15 10:09:48;;;;;;;3.67;1.90;;;27.80;43.00;;;;;;5032117;28;20172;-74
2023/06/15 10:12:21;;;;;;;5.03;1.98;;;27.90;41.60;;;;;;5031988;28;20134;-74
2023/06/15 10:15:07;;;;;;;4.95;2.40;;;28.00;42.10;;;;;;5033022;28;20052;-74
2023/06/15 10:17:34;;;;;;;5.03;1.92;;;28.10;42.70;;;;;;5032004;28;20045;-74
2023/06/15 10:20:13;;;;;;;7.13;2.50;;;28.10;42.60;;;;;;5031434;28;20167;-74
2023/06/15 10:22:56;;;;;;;7.25;2.20;;;28.30;42.00;;;;;;5031957;28;20091;-74
2023/06/15 10:25:23;;;;;;;5.15;1.90;;;28.40;41.30;;;;;;5031865;28;20517;-74
2023/06/15 10:27:49;;;;;;;7.95;2.30;;;28.60;41.10;;;;;;5031836;28;20053;-74
2023/06/15 10:30:38;;;;;;;5.30;2.20;;;28.70;40.60;;;;;;5031824;28;20049;-74
2023/06/15 10:33:13;;;;;;;4.03;1.98;;;28.80;41.00;;;;;;5031861;28;20085;-74
2023/06/15 10:35:58;;;;;;;4.53;2.08;;;29.00;40.80;;;;;;5031713;28;20386;-74
2023/06/15 10:38:42;;;;;;;7.95;2.20;;;29.20;40.20;;;;;;5031758;28;20054;-74
2023/06/15 10:41:09;;;;;;;3.60;2.10;;;29.20;39.50;;;;;;5031738;28;20405;-74
2023/06/15 10:43:35;;;;;;;5.22;2.00;;;29.10;39.00;;;;;;5015264;28;20045;-74
2023/06/15 10:46:02;;;;;;;2.90;2.10;;;29.10;39.00;;;;;;5015188;28;20125;-74
2023/06/15 10:48:29;;;;;;;7.28;2.35;;;29.10;39.50;;;;;;5031750;28;20041;-74
2023/06/15 10:51:06;;;;;;;5.78;2.00;;;29.20;38.90;;;;;;5031821;28;20045;-74
2023/06/15 10:53:42;;;;;;;6.45;2.08;;;29.40;39.10;;;;;;5031727;28;20083;-74
2023/06/15 10:56:13;;;;;;;10.48;2.15;;;29.50;39.00;;;;;;5031784;28;20045;-74
2023/06/15 10:58:51;;;;;;;6.90;2.20;;;29.60;39.00;;;;;;5031865;28;20100;-74
2023/06/15 11:01:21;;;;;;;4.88;1.80;;;29.80;39.00;;;;;;5031542;28;20041;-74
2023/06/15 11:03:47;;;;;;;6.15;2.20;;;29.90;39.10;;;;;;5031564;28;20049;-74
2023/06/15 11:06:18;;;;;;;6.10;2.15;;;30.00;38.50;;;;;;5031417;28;20033;-74
2023/06/15 11:08:52;;;;;;;4.20;2.27;;;30.00;38.60;;;;;;5031789;28;20045;-74
2023/06/15 11:11:31;;;;;;;7.03;2.40;;;30.00;37.60;;;;;;5031698;28;20038;-74
2023/06/15 11:14:02;;;;;;;5.55;2.30;;;30.00;37.60;;;;;;5031505;28;20053;-74
2023/06/15 11:16:36;;;;;;;4.28;1.70;;;30.20;36.90;;;;;;5031363;28;20037;-74
2023/06/15 11:19:13;;;;;;;5.05;1.90;;;29.90;36.30;;;;;;5031390;28;20086;-74
2023/06/15 11:21:59;;;;;;;9.07;2.28;;;30.00;38.00;;;;;;5031342;28;20046;-74
2023/06/15 11:24:44;;;;;;;10.57;2.38;;;30.20;38.20;;;;;;5031299;28;20044;-74
2023/06/15 11:27:11;;;;;;;6.50;2.13;;;30.30;37.20;;;;;;5031670;28;20124;-74
2023/06/15 11:29:40;;;;;;;3.58;1.98;;;30.50;37.20;;;;;;5031269;28;20057;-74
2023/06/15 11:32:07;;;;;;;4.70;1.77;;;30.60;37.50;;;;;;5033190;28;20124;-74
2023/06/15 11:34:33;;;;;;;4.72;1.80;;;30.70;36.70;;;;;;5034787;28;20091;-74
2023/06/15 11:37:00;;;;;;;4.85;2.10;;;30.80;36.20;;;;;;5034790;28;20410;-74
2023/06/15 11:39:28;;;;;;;5.07;2.42;;;30.90;36.10;;;;;;5034780;28;20048;-74
2023/06/15 11:41:56;;;;;;;3.28;2.08;;;31.00;36.80;;;;;;5034756;28;20053;-74
2023/06/15 11:44:23;;;;;;;6.07;2.20;;;31.10;36.70;;;;;;5034600;28;20038;-75
2023/06/15 11:46:54;;;;;;;5.25;2.10;;;31.20;36.00;;;;;;5034924;28;20042;-75
2023/06/15 11:49:20;;;;;;;18.55;2.20;;;31.30;36.20;;;;;;5034635;28;20041;-75
2023/06/15 11:51:47;;;;;;;5.30;2.22;;;31.40;36.50;;;;;;5018035;28;20037;-75
2023/06/15 11:54:13;;;;;;;5.13;2.33;;;31.50;35.80;;;;;;5034269;28;20474;-75
2023/06/15 11:56:48;;;;;;;8.38;2.25;;;31.50;35.60;;;;;;5034780;28;20041;-75
2023/06/15 11:59:21;;;;;;;14.45;2.78;;;31.60;35.10;;;;;;5034467;28;20382;-75
2023/06/15 12:01:47;;;;;;;3.38;2.00;;;31.40;34.90;;;;;;5034524;28;20052;-75
2023/06/15 12:04:13;;;;;;;7.68;2.20;;;31.50;35.30;;;;;;5034212;28;20514;-74
2023/06/15 12:06:42;;;;;;;6.43;2.00;;;31.60;34.50;;;;;;5034296;28;20087;-74
2023/06/15 12:09:09;;;;;;;2.03;1.70;;;31.70;34.50;;;;;;5034257;28;20091;-74
2023/06/15 12:11:36;;;;;;;6.90;2.20;;;31.80;35.20;;;;;;5034129;28;20046;-74
2023/06/15 12:14:06;;;;;;;5.63;2.05;;;31.90;34.70;;;;;;5034195;28;20460;-74
2023/06/15 12:16:31;;;;;;;7.10;2.13;;;31.90;34.60;;;;;;5017727;28;20037;-74
2023/06/15 12:19:01;;;;;;;3.50;1.90;;;32.00;34.40;;;;;;5034098;28;20409;-74
2023/06/15 12:21:36;;;;;;;3.58;2.15;;;31.70;34.20;;;;;;5034024;28;20045;-74
2023/06/15 12:24:15;;;;;;;6.68;2.10;;;31.60;35.00;;;;;;5034265;28;20042;-74
2023/06/15 12:26:41;;;;;;;6.43;2.05;;;31.60;34.80;;;;;;5034052;28;20095;-74
2023/06/15 12:29:15;;;;;;;4.90;1.98;;;31.70;33.60;;;;;;5033911;28;20049;-74
2023/06/15 12:31:41;;;;;;;8.02;2.03;;;31.90;34.90;;;;;;5033907;28;20080;-74
2023/06/15 12:34:11;;;;;;;6.82;1.90;;;31.90;35.00;;;;;;5017342;28;20116;-74
2023/06/15 12:36:38;;;;;;;11.95;2.60;;;32.00;34.70;;;;;;5033648;28;20441;-74
2023/06/15 12:39:13;;;;;;;5.70;2.70;;;32.00;34.70;;;;;;5033666;28;20525;-75
2023/06/15 12:41:41;;;;;;;7.60;2.00;;;31.70;34.90;;;;;;5033733;28;20048;-75
2023/06/15 12:44:07;;;;;;;8.55;2.25;;;31.20;34.70;;;;;;5033130;28;20092;-75
2023/06/15 12:46:36;;;;;;;2.85;1.80;;;30.90;35.80;;;;;;5033538;28;20073;-75